Time;durP1;ratioP1;P1;durP2;ratioP2;P2;SDS_P1;SDS_P2;PMS_P1;PMS_P2;Temp;Humidity;BMP_temperature;BMP_pressure;BME280_temperature;BME280_humidity;BME280_pressure;Samples;Min_cycle;Max_cycle;Signal;HPM_P1;HPM_P2
2023/04/26 00:02:22;;;;;;;5.95;3.22;;;;;;;2.13;86.04;101849.44;4967570;28;20033;-73
2023/04/26 00:04:54;;;;;;;6.97;3.05;;;;;;;2.09;85.54;101845.03;4965749;28;20129;-73
2023/04/26 00:07:23;;;;;;;5.22;3.40;;;;;;;2.08;85.85;101845.97;4966575;28;20043;-73
2023/04/26 00:09:51;;;;;;;9.07;4.05;;;;;;;2.06;86.22;101844.25;4967464;28;20062;-73
2023/04/26 00:12:17;;;;;;;7.35;3.33;;;;;;;1.99;85.80;101838.97;4967185;28;20043;-73
2023/04/26 00:14:43;;;;;;;7.97;3.28;;;;;;;1.96;85.65;101846.25;4966911;28;20479;-73
2023/04/26 00:17:08;;;;;;;4.63;3.35;;;;;;;1.91;85.73;101843.66;4967261;28;20089;-73
2023/04/26 00:19:34;;;;;;;5.40;3.22;;;;;;;1.86;86.03;101841.94;4967335;28;20502;-73
2023/04/26 00:21:59;;;;;;;6.50;3.47;;;;;;;1.83;86.52;101853.66;4964987;28;20155;-73
2023/04/26 00:24:24;;;;;;;7.35;3.13;;;;;;;1.79;86.90;101847.44;4967945;28;20039;-73
2023/04/26 00:26:52;;;;;;;8.88;3.33;;;;;;;1.75;87.00;101847.53;4967527;28;20027;-73
2023/04/26 00:29:18;;;;;;;5.80;3.25;;;;;;;1.72;86.67;101845.78;4969335;28;20050;-73
2023/04/26 00:31:43;;;;;;;7.22;3.58;;;;;;;1.71;86.35;101843.16;4971395;28;20049;-73
2023/04/26 00:34:09;;;;;;;6.55;2.85;;;;;;;1.70;86.60;101850.31;4970899;28;20082;-74
2023/04/26 00:36:34;;;;;;;7.68;3.72;;;;;;;1.68;86.92;101851.25;4967868;28;20110;-73
2023/04/26 00:39:01;;;;;;;5.30;3.03;;;;;;;1.65;87.16;101845.97;4974475;28;20018;-73
2023/04/26 00:41:27;;;;;;;6.55;3.22;;;;;;;1.62;86.70;101846.00;4970277;28;20042;-73
2023/04/26 00:43:52;;;;;;;12.68;4.18;;;;;;;1.61;86.82;101850.50;4970662;28;20034;-73
2023/04/26 00:46:17;;;;;;;6.53;3.60;;;;;;;1.58;86.70;101842.50;4969702;28;20031;-73
2023/04/26 00:48:43;;;;;;;8.00;3.75;;;;;;;1.52;86.77;101843.50;4971058;28;20097;-73
2023/04/26 00:51:09;;;;;;;9.55;3.80;;;;;;;1.52;87.34;101850.66;4968277;28;20039;-73
2023/04/26 00:53:35;;;;;;;5.70;3.03;;;;;;;1.49;87.06;101845.34;4968959;28;20429;-73
2023/04/26 00:56:01;;;;;;;7.80;3.35;;;;;;;1.49;87.42;101850.72;4984255;28;20041;-73
2023/04/26 00:58:26;;;;;;;9.18;3.42;;;;;;;1.43;87.92;101843.69;4971475;28;20449;-72
2023/04/26 01:00:51;;;;;;;7.78;3.05;;;;;;;1.43;87.99;101841.00;4988279;28;20065;-72
2023/04/26 01:03:17;;;;;;;4.35;2.90;;;;;;;1.43;87.50;101848.16;4978574;28;20046;-72
2023/04/26 01:05:47;;;;;;;5.97;3.15;;;;;;;1.41;88.02;101842.84;4970277;28;20038;-72
2023/04/26 01:08:16;;;;;;;8.02;3.40;;;;;;;1.39;87.85;101836.59;4985266;28;20061;-72
2023/04/26 01:10:42;;;;;;;6.05;3.42;;;;;;;1.35;88.25;101836.69;4974321;28;20030;-72
2023/04/26 01:13:07;;;;;;;5.45;2.92;;;;;;;1.36;88.55;101849.19;4980614;28;20431;-72
2023/04/26 01:15:34;;;;;;;13.65;3.72;;;;;;;1.32;88.53;101848.38;4988116;28;20041;-72
2023/04/26 01:18:00;;;;;;;5.88;3.80;;;;;;;1.32;88.22;101847.47;4988456;28;20038;-71
2023/04/26 01:20:26;;;;;;;7.47;3.80;;;;;;;1.29;88.57;101843.03;4982951;28;20038;-72
2023/04/26 01:22:51;;;;;;;12.23;4.00;;;;;;;1.26;88.50;101843.13;4988883;28;20038;-72
2023/04/26 01:25:17;;;;;;;7.30;3.47;;;;;;;1.20;89.16;101835.16;4976786;28;20710;-72
2023/04/26 01:27:43;;;;;;;6.68;3.55;;;;;;;1.17;89.00;101844.16;4970423;28;20093;-71
2023/04/26 01:30:08;;;;;;;9.02;4.15;;;;;;;1.14;88.68;101838.84;4968460;28;20420;-71
2023/04/26 01:32:34;;;;;;;5.63;3.33;;;;;;;1.13;88.35;101847.81;4969709;28;20054;-71
2023/04/26 01:35:00;;;;;;;6.25;3.20;;;;;;;1.14;88.35;101852.25;4980054;28;20056;-71
2023/04/26 01:37:26;;;;;;;10.98;3.45;;;;;;;1.08;88.66;101840.75;4968602;28;20440;-71
2023/04/26 01:39:51;;;;;;;7.97;3.60;;;;;;;1.11;88.72;101851.41;4968064;28;20117;-72
2023/04/26 01:42:18;;;;;;;7.30;3.40;;;;;;;1.10;88.92;101858.56;4968182;28;20059;-71
2023/04/26 01:44:43;;;;;;;8.20;3.17;;;;;;;1.08;89.03;101852.38;4970495;28;20074;-70
2023/04/26 01:47:09;;;;;;;5.57;3.50;;;;;;;1.07;89.18;101852.38;4968030;28;20057;-71
2023/04/26 01:49:34;;;;;;;8.00;3.70;;;;;;;1.06;88.97;101847.94;4969722;28;20495;-71
2023/04/26 01:52:00;;;;;;;7.25;3.67;;;;;;;1.04;89.48;101842.59;4966537;28;20044;-71
2023/04/26 01:54:25;;;;;;;7.93;3.90;;;;;;;1.04;89.23;101847.97;4967956;28;20019;-71
2023/04/26 01:56:51;;;;;;;10.85;3.65;;;;;;;1.02;89.83;101841.72;4969486;28;20042;-68
2023/04/26 01:59:17;;;;;;;9.95;3.15;;;;;;;0.96;88.77;101845.41;4967752;28;20064;-70
2023/04/26 02:01:42;;;;;;;8.60;3.65;;;;;;;0.98;88.94;101850.75;4969840;28;20422;-71
2023/04/26 02:04:09;;;;;;;6.32;3.58;;;;;;;0.93;89.22;101847.25;4967559;28;20031;-70
2023/04/26 02:06:35;;;;;;;10.80;3.90;;;;;;;0.91;89.39;101847.28;4968029;28;20030;-70
2023/04/26 02:09:00;;;;;;;7.97;3.63;;;;;;;0.90;89.43;101856.22;4969393;28;20038;-70
2023/04/26 02:11:26;;;;;;;9.07;4.28;;;;;;;0.87;89.78;101850.03;4969027;28;20097;-70
2023/04/26 02:13:52;;;;;;;6.90;3.53;;;;;;;0.84;89.60;101852.75;4968977;28;20038;-70
2023/04/26 02:16:20;;;;;;;8.82;3.22;;;;;;;0.81;89.74;101853.69;4968705;28;20498;-71
2023/04/26 02:18:46;;;;;;;6.80;3.30;;;;;;;0.78;89.89;101851.06;4968752;28;20037;-71
2023/04/26 02:21:11;;;;;;;6.30;3.17;;;;;;;0.75;89.96;101843.97;4967359;28;20030;-71
2023/04/26 02:23:36;;;;;;;4.82;3.10;;;;;;;0.74;89.85;101850.22;4967349;28;20039;-71
2023/04/26 02:26:02;;;;;;;6.30;3.15;;;;;;;0.72;89.46;101844.00;4967267;28;20189;-71
2023/04/26 02:28:27;;;;;;;10.80;3.22;;;;;;;0.69;89.09;101841.38;4982490;28;20061;-71
2023/04/26 02:30:55;;;;;;;6.32;3.20;;;;;;;0.67;89.33;101839.63;4987931;28;20047;-70
2023/04/26 02:33:21;;;;;;;4.93;2.95;;;;;;;0.65;89.71;101838.75;4987865;28;20131;-70
2023/04/26 02:35:47;;;;;;;7.35;2.90;;;;;;;0.64;89.69;101839.69;4968727;28;20496;-70
2023/04/26 02:38:12;;;;;;;6.90;3.20;;;;;;;0.61;89.73;101837.94;4968384;28;20031;-70
2023/04/26 02:40:38;;;;;;;6.55;3.03;;;;;;;0.57;89.59;101827.31;4968477;28;20055;-70
2023/04/26 02:43:05;;;;;;;7.32;3.42;;;;;;;0.59;89.93;101838.88;4978034;28;20108;-71
2023/04/26 02:45:30;;;;;;;7.18;2.90;;;;;;;0.56;90.20;101841.56;4970510;28;20030;-71
2023/04/26 02:47:55;;;;;;;5.10;3.20;;;;;;;0.53;89.86;101837.16;4970323;28;20030;-71
2023/04/26 02:50:21;;;;;;;4.75;3.10;;;;;;;0.47;89.99;101843.50;4981486;28;20415;-70
2023/04/26 02:52:48;;;;;;;6.20;3.00;;;;;;;0.44;90.21;101840.88;4965552;28;20033;-71
2023/04/26 02:55:14;;;;;;;4.43;3.22;;;;;;;0.43;90.78;101840.91;4993098;28;20498;-71
2023/04/26 02:57:39;;;;;;;7.43;3.05;;;;;;;0.42;90.17;101839.09;4986299;28;20042;-71
2023/04/26 03:00:07;;;;;;;5.93;3.10;;;;;;;0.35;90.03;101832.97;4986045;28;20133;-71
2023/04/26 03:02:33;;;;;;;8.98;3.95;;;;;;;0.38;89.71;101832.06;4986448;28;20466;-71
2023/04/26 03:04:59;;;;;;;11.30;3.85;;;;;;;0.36;90.32;101828.50;4973112;28;20121;-70
2023/04/26 03:07:24;;;;;;;8.23;3.67;;;;;;;0.34;90.25;101833.00;4965813;28;20022;-70
2023/04/26 03:09:50;;;;;;;8.13;3.78;;;;;;;0.31;90.29;101827.69;4966447;28;20126;-71
2023/04/26 03:12:16;;;;;;;6.45;3.55;;;;;;;0.31;90.30;101827.69;4966222;28;20027;-71
2023/04/26 03:14:41;;;;;;;5.75;3.45;;;;;;;0.29;90.24;101832.19;4967432;28;20038;-70
2023/04/26 03:17:07;;;;;;;8.80;3.50;;;;;;;0.29;90.28;101829.50;4966339;28;20113;-71
2023/04/26 03:19:33;;;;;;;11.88;4.00;;;;;;;0.23;90.30;101819.75;4971487;28;20043;-71
2023/04/26 03:22:00;;;;;;;6.25;3.60;;;;;;;0.27;90.24;101824.16;4965121;28;20045;-71
2023/04/26 03:24:25;;;;;;;8.98;3.63;;;;;;;0.25;90.31;101826.88;4966417;28;20038;-70
2023/04/26 03:26:51;;;;;;;10.15;4.05;;;;;;;0.24;91.17;101824.22;4966204;28;20023;-71
2023/04/26 03:29:17;;;;;;;8.25;3.50;;;;;;;0.22;91.19;101820.66;4966105;28;20034;-71
2023/04/26 03:31:43;;;;;;;11.20;3.67;;;;;;;0.19;91.41;101821.63;4966734;28;20035;-70
2023/04/26 03:34:09;;;;;;;8.95;4.32;;;;;;;0.18;91.13;101819.81;4970768;28;20046;-70
2023/04/26 03:36:34;;;;;;;10.10;4.40;;;;;;;0.14;91.41;101817.19;4983994;28;20096;-70
2023/04/26 03:39:03;;;;;;;7.32;4.10;;;;;;;0.10;91.22;101821.72;4985345;28;20486;-70
2023/04/26 03:41:28;;;;;;;11.60;4.18;;;;;;;0.09;90.74;101821.72;4977220;28;20470;-70
2023/04/26 03:43:57;;;;;;;9.85;4.18;;;;;;;0.07;90.74;101816.41;4966236;28;20034;-70
2023/04/26 03:46:23;;;;;;;8.32;3.95;;;;;;;0.04;91.88;101816.44;4966006;28;20054;-69
2023/04/26 03:48:48;;;;;;;7.22;4.40;;;;;;;-0.01;91.24;101821.84;4965772;28;20077;-69
2023/04/26 03:51:13;;;;;;;8.15;4.03;;;;;;;-0.02;90.97;101820.09;4966683;28;20027;-69
2023/04/26 03:53:40;;;;;;;9.95;4.78;;;;;;;-0.03;91.08;101818.34;4966427;28;20034;-69
2023/04/26 03:56:07;;;;;;;12.60;3.85;;;;;;;-0.04;90.39;101824.59;4982140;28;20141;-70
2023/04/26 03:58:33;;;;;;;10.80;4.13;;;;;;;-0.06;90.84;101823.72;4984696;28;20061;-70
2023/04/26 04:00:58;;;;;;;10.40;4.35;;;;;;;-0.05;90.73;101827.25;4985432;28;20199;-70
2023/04/26 04:03:24;;;;;;;12.90;4.70;;;;;;;-0.08;91.09;101825.53;4986199;28;20053;-69
2023/04/26 04:05:50;;;;;;;9.70;4.10;;;;;;;-0.10;91.15;101827.31;4987998;28;20517;-69
2023/04/26 04:08:16;;;;;;;10.75;4.60;;;;;;;-0.12;90.75;101826.47;4990377;28;20041;-69
2023/04/26 04:10:41;;;;;;;7.43;3.63;;;;;;;-0.13;91.13;101823.81;4989478;28;20136;-70
2023/04/26 04:13:07;;;;;;;10.15;3.90;;;;;;;-0.12;91.12;101822.91;4977183;28;20049;-70
2023/04/26 04:15:33;;;;;;;7.57;3.95;;;;;;;-0.15;91.77;101817.59;4969671;28;20130;-70
2023/04/26 04:17:59;;;;;;;11.13;4.68;;;;;;;-0.17;91.15;101820.31;4969416;28;20058;-69
2023/04/26 04:20:24;;;;;;;8.32;3.92;;;;;;;-0.18;91.18;101817.66;4969329;28;20042;-70
2023/04/26 04:22:53;;;;;;;7.18;4.20;;;;;;;-0.17;91.13;101822.09;4968762;28;20043;-70
2023/04/26 04:25:21;;;;;;;12.25;4.65;;;;;;;-0.17;91.69;101822.97;4969354;28;20065;-70
2023/04/26 04:27:47;;;;;;;14.00;4.45;;;;;;;-0.18;91.98;101823.88;4969591;28;20037;-70
2023/04/26 04:30:13;;;;;;;7.70;4.10;;;;;;;-0.17;92.16;101816.75;4970909;28;20053;-70
2023/04/26 04:32:41;;;;;;;8.60;4.80;;;;;;;-0.16;92.11;101821.19;4969302;28;20043;-70
2023/04/26 04:35:06;;;;;;;7.22;3.75;;;;;;;-0.14;91.93;101832.72;4978244;28;20386;-70
2023/04/26 04:37:32;;;;;;;11.13;4.82;;;;;;;-0.11;92.26;101827.34;4984679;28;20034;-70
2023/04/26 04:39:58;;;;;;;9.60;3.95;;;;;;;-0.08;92.08;101830.88;4969291;28;20042;-70
2023/04/26 04:42:26;;;;;;;6.80;4.20;;;;;;;-0.03;92.60;101836.16;4969257;28;20101;-70
2023/04/26 04:44:52;;;;;;;7.57;4.50;;;;;;;0.12;92.89;101830.63;4969377;28;20336;-69
2023/04/26 04:47:18;;;;;;;8.07;3.97;;;;;;;0.31;91.66;101833.03;4968750;28;20031;-70
2023/04/26 04:49:46;;;;;;;10.60;4.32;;;;;;;0.44;91.48;101834.63;4978221;28;20030;-70
2023/04/26 04:52:11;;;;;;;9.43;4.50;;;;;;;0.58;91.20;101827.28;4968505;28;20117;-70
2023/04/26 04:54:37;;;;;;;6.10;4.00;;;;;;;0.76;90.64;101837.69;4968677;28;20027;-70
2023/04/26 04:57:02;;;;;;;13.85;5.35;;;;;;;0.79;90.85;101836.75;4968361;28;20015;-70
2023/04/26 04:59:28;;;;;;;10.13;4.90;;;;;;;0.85;90.52;101846.50;4968988;28;20042;-70
2023/04/26 05:01:54;;;;;;;13.55;5.05;;;;;;;0.86;90.49;101848.25;4979094;28;20030;-70
2023/04/26 05:04:20;;;;;;;12.23;5.63;;;;;;;0.98;90.35;101848.97;4969396;28;20034;-70
2023/04/26 05:06:46;;;;;;;12.60;5.15;;;;;;;1.09;90.94;101843.41;4968976;28;20030;-70
2023/04/26 05:09:12;;;;;;;18.77;5.57;;;;;;;1.16;91.25;101850.41;4977404;28;20059;-70
2023/04/26 05:11:37;;;;;;;10.63;4.78;;;;;;;1.27;90.26;101853.81;4975679;28;20031;-70
2023/04/26 05:14:04;;;;;;;10.02;4.70;;;;;;;1.39;90.10;101849.13;4969622;28;20038;-71
2023/04/26 05:16:29;;;;;;;9.20;4.07;;;;;;;1.52;90.02;101856.03;4967339;28;20138;-71
2023/04/26 05:18:56;;;;;;;11.63;4.38;;;;;;;1.65;90.55;101856.69;4968187;28;20117;-71
2023/04/26 05:21:22;;;;;;;13.95;4.35;;;;;;;1.74;89.96;101854.72;4982007;28;20499;-71
2023/04/26 05:23:47;;;;;;;11.90;5.00;;;;;;;1.90;90.28;101851.72;4984338;28;20042;-71
2023/04/26 05:26:15;;;;;;;15.18;4.65;;;;;;;2.10;89.80;101852.19;4977674;28;20031;-72
2023/04/26 05:28:53;;;;;;;8.40;5.10;;;;;;;2.22;89.46;101840.28;4971643;28;20035;-72
2023/04/26 05:31:22;;;;;;;11.80;5.55;;;;;;;2.31;88.91;101853.53;4969206;28;20090;-72
2023/04/26 05:34:07;;;;;;;10.65;5.20;;;;;;;2.36;88.63;101853.41;4968013;28;20061;-72
2023/04/26 05:36:35;;;;;;;10.30;4.97;;;;;;;2.37;88.88;101848.00;4966946;28;20046;-73
2023/04/26 05:39:00;;;;;;;14.45;5.72;;;;;;;2.41;88.99;101848.81;4971385;28;20037;-71
2023/04/26 05:41:26;;;;;;;12.13;5.40;;;;;;;2.43;89.40;101863.13;4978964;28;20039;-73
2023/04/26 05:43:52;;;;;;;10.05;5.68;;;;;;;2.45;89.45;101861.28;4968418;28;20039;-71
2023/04/26 05:46:17;;;;;;;13.73;5.82;;;;;;;2.46;89.83;101863.03;4976615;28;20478;-72
2023/04/26 05:48:42;;;;;;;15.93;5.72;;;;;;;2.49;89.74;101862.97;4986041;28;20398;-72
2023/04/26 05:51:08;;;;;;;11.73;6.05;;;;;;;2.54;90.05;101858.38;4966895;28;20046;-73
2023/04/26 05:53:33;;;;;;;14.18;6.05;;;;;;;2.66;89.73;101851.81;4967673;28;20046;-73
2023/04/26 05:55:58;;;;;;;10.95;6.25;;;;;;;2.79;89.86;101858.66;4968458;28;20035;-73
2023/04/26 05:58:24;;;;;;;18.63;7.90;;;;;;;2.92;89.90;101852.09;4980577;28;20042;-73
2023/04/26 06:00:49;;;;;;;13.25;7.20;;;;;;;3.04;89.40;101853.59;4983156;28;20062;-73
2023/04/26 06:03:16;;;;;;;15.43;6.75;;;;;;;3.18;88.78;101856.81;4975338;28;20135;-73
2023/04/26 06:05:41;;;;;;;18.20;7.40;;;;;;;3.37;89.73;101853.66;4968533;28;20529;-73
2023/04/26 06:08:07;;;;;;;18.15;7.82;;;;;;;3.52;89.53;101855.94;4966496;28;20458;-74
2023/04/26 06:10:34;;;;;;;16.42;7.47;;;;;;;3.68;89.78;101853.69;4967060;28;20133;-75
2023/04/26 06:13:00;;;;;;;20.23;7.90;;;;;;;3.87;90.64;101851.38;4967452;28;20070;-75
2023/04/26 06:15:27;;;;;;;19.60;7.60;;;;;;;4.05;89.72;101858.91;4967789;28;20042;-75
2023/04/26 06:17:53;;;;;;;15.40;7.75;;;;;;;4.29;88.86;101862.69;4967505;28;20036;-75
2023/04/26 06:20:19;;;;;;;19.95;7.65;;;;;;;4.53;89.19;101861.97;4977332;28;20128;-75
2023/04/26 06:22:45;;;;;;;18.77;7.47;;;;;;;4.75;87.75;101867.53;4967381;28;20031;-76
2023/04/26 06:25:11;;;;;;;13.98;6.68;;;;;;;4.89;87.32;101866.22;4967633;28;20038;-75
2023/04/26 06:27:38;;;;;;;14.93;7.60;;;;;;;4.98;87.33;101866.78;4966788;28;20038;-75
2023/04/26 06:30:05;;;;;;;16.30;7.63;;;;;;;5.04;86.69;101865.72;4967199;28;20043;-74
2023/04/26 06:32:32;;;;;;;14.55;7.30;;;;;;;5.08;86.03;101862.88;4967174;28;20049;-75
2023/04/26 06:34:57;;;;;;;16.15;7.13;;;;;;;5.15;86.59;101871.63;4967027;28;20030;-75
2023/04/26 06:37:23;;;;;;;15.02;6.78;;;;;;;5.27;87.24;101876.63;4966187;28;20117;-74
2023/04/26 06:39:50;;;;;;;13.60;6.85;;;;;;;5.42;86.62;101874.34;4966884;28;20405;-75
2023/04/26 06:42:16;;;;;;;17.98;7.78;;;;;;;5.59;87.72;101874.63;4967284;28;20034;-73
2023/04/26 06:44:57;;;;;;;15.00;7.40;;;;;;;5.84;87.56;101877.34;4971678;28;20049;-72
2023/04/26 06:47:22;;;;;;;12.63;7.05;;;;;;;6.10;87.01;101887.22;4966908;28;20487;-72
2023/04/26 06:49:47;;;;;;;17.95;6.85;;;;;;;6.25;86.77;101885.75;4967160;28;20537;-73
2023/04/26 06:52:13;;;;;;;14.32;7.40;;;;;;;6.34;84.85;101886.31;4967650;28;20042;-73
2023/04/26 06:54:38;;;;;;;16.88;6.78;;;;;;;6.51;84.89;101882.94;4971763;28;20470;-73
2023/04/26 06:57:03;;;;;;;11.18;5.95;;;;;;;6.65;84.88;101882.41;4978557;28;20578;-73
2023/04/26 06:59:29;;;;;;;16.85;5.68;;;;;;;6.73;83.88;101887.50;4968419;28;20093;-73
2023/04/26 07:01:54;;;;;;;12.60;6.25;;;;;;;6.76;83.21;101880.16;4968268;28;20050;-73
2023/04/26 07:04:20;;;;;;;14.18;5.82;;;;;;;6.87;83.65;101877.91;4967045;28;20475;-73
2023/04/26 07:06:45;;;;;;;14.30;5.97;;;;;;;7.02;82.96;101880.91;4965751;28;20035;-73
2023/04/26 07:09:11;;;;;;;10.85;5.35;;;;;;;7.14;82.14;101888.53;4978613;28;20046;-73
2023/04/26 07:11:36;;;;;;;12.30;4.75;;;;;;;7.25;81.69;101878.13;4968278;28;20483;-72
2023/04/26 07:14:03;;;;;;;14.57;5.20;;;;;;;7.35;79.02;101894.88;4967619;28;20521;-73
2023/04/26 07:16:28;;;;;;;7.68;4.43;;;;;;;7.42;80.52;101888.28;4967968;28;20023;-73
2023/04/26 07:18:57;;;;;;;16.17;4.63;;;;;;;7.47;78.56;101885.38;4966749;28;20557;-72
2023/04/26 07:21:22;;;;;;;9.77;3.95;;;;;;;7.53;78.49;101882.38;4965107;28;20038;-72
2023/04/26 07:23:47;;;;;;;9.70;4.78;;;;;;;7.64;78.94;101891.78;4968167;28;20047;-72
2023/04/26 07:26:13;;;;;;;8.75;4.40;;;;;;;7.80;79.87;101888.44;4966797;28;20022;-73
2023/04/26 07:28:38;;;;;;;11.65;4.75;;;;;;;7.97;79.62;101887.66;4980963;28;20117;-74
2023/04/26 07:31:03;;;;;;;11.25;5.55;;;;;;;8.07;78.57;101883.63;4987142;28;20077;-73
2023/04/26 07:33:29;;;;;;;8.50;4.85;;;;;;;8.18;76.65;101887.56;4986215;28;20108;-74
2023/04/26 07:35:58;;;;;;;14.80;7.70;;;;;;;8.29;76.93;101886.19;4966743;28;20046;-74
2023/04/26 07:38:24;;;;;;;10.50;5.13;;;;;;;8.39;75.77;101885.75;4971666;28;20363;-73
2023/04/26 07:40:50;;;;;;;11.35;5.68;;;;;;;8.51;74.83;101872.56;4973642;28;20047;-74
2023/04/26 07:43:16;;;;;;;8.90;4.75;;;;;;;8.60;75.26;101877.53;4974346;28;20495;-74
2023/04/26 07:45:42;;;;;;;10.90;4.88;;;;;;;8.69;75.47;101878.00;4973447;28;20121;-74
2023/04/26 07:48:07;;;;;;;11.02;4.38;;;;;;;8.90;75.41;101869.75;4974605;28;20109;-74
2023/04/26 07:50:32;;;;;;;8.48;4.32;;;;;;;9.09;72.05;101875.13;4972968;28;20104;-74
2023/04/26 07:52:58;;;;;;;11.70;4.55;;;;;;;9.23;72.15;101878.03;4973400;28;20050;-73
2023/04/26 07:55:23;;;;;;;9.57;4.50;;;;;;;9.35;73.65;101869.28;4983420;28;20022;-74
2023/04/26 07:57:49;;;;;;;12.30;4.32;;;;;;;9.66;73.07;101871.31;4978563;28;20058;-74
2023/04/26 08:00:16;;;;;;;9.27;4.43;;;;;;;10.08;73.45;101880.88;4973282;28;20035;-73
2023/04/26 08:02:41;;;;;;;11.55;5.35;;;;;;;10.52;72.53;101880.31;4974595;28;20074;-71
2023/04/26 08:05:07;;;;;;;12.27;4.20;;;;;;;10.64;65.18;101882.34;4980418;28;20065;-71
2023/04/26 08:07:33;;;;;;;12.98;3.75;;;;;;;10.77;67.00;101888.00;4971849;28;20077;-71
2023/04/26 08:09:58;;;;;;;6.93;3.15;;;;;;;10.73;63.70;101890.00;4972507;28;20042;-71
2023/04/26 08:12:24;;;;;;;9.60;2.83;;;;;;;10.70;63.11;101894.72;4973861;28;20029;-73
2023/04/26 08:14:49;;;;;;;7.05;3.20;;;;;;;10.91;65.96;101887.16;4989017;28;20042;-71
2023/04/26 08:17:15;;;;;;;5.00;2.15;;;;;;;11.20;63.73;101899.13;4973636;28;20162;-73
2023/04/26 08:19:40;;;;;;;4.53;1.75;;;;;;;11.26;63.19;101892.44;4974348;28;20039;-72
2023/04/26 08:22:06;;;;;;;6.70;1.70;;;;;;;11.21;58.87;101893.59;4972478;28;20479;-72
2023/04/26 08:24:31;;;;;;;4.50;2.25;;;;;;;11.07;56.67;101889.91;4988872;28;20738;-72
2023/04/26 08:26:57;;;;;;;4.88;1.92;;;;;;;10.86;59.30;101884.72;4988326;28;20129;-72
2023/04/26 08:29:23;;;;;;;5.97;2.05;;;;;;;10.72;60.24;101884.63;4973852;28;20054;-75
2023/04/26 08:31:49;;;;;;;5.68;2.17;;;;;;;10.33;55.27;101885.88;4973605;28;20047;-72
2023/04/26 08:34:15;;;;;;;7.45;2.35;;;;;;;10.36;59.58;101888.44;4973984;28;20034;-72
2023/04/26 08:36:40;;;;;;;4.70;2.28;;;;;;;10.59;60.30;101889.03;4973070;28;20106;-72
2023/04/26 08:39:06;;;;;;;6.22;2.42;;;;;;;10.76;60.71;101888.94;4988421;28;20042;-72
2023/04/26 08:41:36;;;;;;;3.25;2.00;;;;;;;10.79;62.19;101896.94;4973398;28;20474;-72
2023/04/26 08:44:07;;;;;;;5.63;1.90;;;;;;;10.92;60.70;101881.66;4973466;28;20114;-72
2023/04/26 08:46:58;;;;;;;7.32;1.80;;;;;;;10.91;61.05;101888.09;4973544;28;20126;-71
2023/04/26 08:49:41;;;;;;;4.97;1.80;;;;;;;10.84;60.49;101888.50;4968301;28;20467;-72
2023/04/26 08:52:15;;;;;;;4.43;1.70;;;;;;;10.71;57.86;101886.47;4969834;28;20096;-72
2023/04/26 08:54:41;;;;;;;4.55;1.92;;;;;;;10.61;58.22;101884.34;4970462;28;20039;-72
2023/04/26 08:57:07;;;;;;;4.40;1.38;;;;;;;10.74;58.31;101882.72;4970371;28;22063;-73
2023/04/26 08:59:36;;;;;;;4.65;1.60;;;;;;;10.77;58.34;101884.34;4970371;28;20108;-72
2023/04/26 09:02:04;;;;;;;2.67;1.52;;;;;;;10.74;53.15;101885.44;4968682;28;20031;-73
2023/04/26 09:04:30;;;;;;;11.32;2.08;;;;;;;10.61;55.37;101873.47;4975062;28;20042;-72
2023/04/26 09:06:59;;;;;;;7.05;2.08;;;;;;;10.52;55.02;101879.44;4987440;28;20034;-74
2023/04/26 09:09:26;;;;;;;4.03;1.60;;;;;;;10.56;54.57;101873.72;4989581;28;20046;-73
2023/04/26 09:11:56;;;;;;;3.55;1.77;;;;;;;11.26;61.17;101867.94;4983885;28;20162;-72
2023/04/26 09:14:22;;;;;;;3.55;1.73;;;;;;;11.64;57.55;101868.34;5001664;28;20399;-72
2023/04/26 09:16:48;;;;;;;5.25;1.70;;;;;;;11.59;54.84;101863.19;4968511;28;20112;-72
2023/04/26 09:19:13;;;;;;;8.50;1.90;;;;;;;11.56;55.84;101862.47;4970557;28;20838;-73
2023/04/26 09:21:43;;;;;;;7.40;2.08;;;;;;;11.46;56.25;101867.59;4969053;28;20039;-73
2023/04/26 09:24:08;;;;;;;6.63;2.28;;;;;;;11.51;56.44;101862.75;4984730;28;20031;-72
2023/04/26 09:26:34;;;;;;;5.78;2.53;;;;;;;11.53;54.24;101868.13;4968738;28;20363;-72
2023/04/26 09:29:17;;;;;;;6.03;2.40;;;;;;;11.53;57.21;101863.56;4969856;28;20054;-72
2023/04/26 09:31:48;;;;;;;4.00;2.10;;;;;;;11.60;51.44;101858.59;4969338;28;20487;-73
2023/04/26 09:34:14;;;;;;;6.03;2.53;;;;;;;11.53;50.20;101868.13;4975038;28;20479;-73
2023/04/26 09:36:55;;;;;;;5.97;2.60;;;;;;;11.72;54.77;101863.31;4967871;28;20101;-73
2023/04/26 09:39:39;;;;;;;3.70;2.35;;;;;;;11.92;55.38;101868.44;4984968;28;20126;-72
2023/04/26 09:42:05;;;;;;;7.05;2.35;;;;;;;11.90;53.48;101869.53;4969302;28;20238;-72
2023/04/26 09:44:31;;;;;;;5.03;2.35;;;;;;;11.84;55.29;101878.94;4968640;28;20047;-72
2023/04/26 09:47:08;;;;;;;6.47;2.45;;;;;;;11.66;56.06;101871.88;4967879;28;20129;-72
2023/04/26 09:49:49;;;;;;;6.85;2.95;;;;;;;11.60;58.51;101872.22;4969413;28;20051;-71
2023/04/26 09:52:15;;;;;;;4.45;2.58;;;;;;;11.53;53.38;101870.88;4967759;28;20042;-72
2023/04/26 09:54:51;;;;;;;4.32;1.92;;;;;;;11.42;53.12;101872.38;4969442;28;20085;-73
2023/04/26 09:57:18;;;;;;;6.15;2.42;;;;;;;11.25;53.69;101872.50;4969225;28;20138;-72
2023/04/26 09:59:43;;;;;;;7.80;2.60;;;;;;;11.15;53.84;101868.56;4970150;28;20066;-72
2023/04/26 10:02:21;;;;;;;5.63;2.78;;;;;;;11.05;53.97;101870.94;4967783;28;20069;-72
2023/04/26 10:04:49;;;;;;;5.03;2.30;;;;;;;10.93;52.15;101861.63;4969056;28;20100;-72
2023/04/26 10:07:17;;;;;;;4.43;2.50;;;;;;;10.83;53.74;101865.84;4968583;28;20041;-72
2023/04/26 10:09:43;;;;;;;6.97;2.72;;;;;;;10.62;53.68;101867.94;4968420;28;20038;-72
2023/04/26 10:12:10;;;;;;;6.60;2.63;;;;;;;10.50;58.27;101874.09;4968971;28;20049;-72
2023/04/26 10:14:35;;;;;;;5.95;2.63;;;;;;;10.41;53.11;101867.31;4969237;28;20102;-72
2023/04/26 10:17:03;;;;;;;5.50;2.28;;;;;;;10.30;55.26;101875.16;4968892;28;20078;-72
2023/04/26 10:19:30;;;;;;;4.03;2.47;;;;;;;10.20;53.44;101874.75;4969887;28;20034;-72
2023/04/26 10:22:02;;;;;;;4.75;2.78;;;;;;;10.13;55.12;101884.22;4966647;28;20488;-72
2023/04/26 10:24:28;;;;;;;11.32;2.80;;;;;;;10.18;58.62;101868.53;4968936;28;20487;-72
2023/04/26 10:26:56;;;;;;;8.25;2.95;;;;;;;10.19;58.75;101862.13;4968525;28;20049;-72
2023/04/26 10:29:23;;;;;;;10.13;3.58;;;;;;;10.12;55.35;101871.59;4968574;28;20035;-72
2023/04/26 10:32:00;;;;;;;8.82;3.40;;;;;;;10.17;58.07;101877.66;4967477;28;20499;-71
2023/04/26 10:34:26;;;;;;;8.98;3.40;;;;;;;10.17;55.79;101863.19;4968160;28;20035;-72
2023/04/26 10:37:15;;;;;;;8.23;2.90;;;;;;;10.26;58.66;101864.53;4967393;28;20093;-72
2023/04/26 10:39:42;;;;;;;6.13;3.08;;;;;;;10.27;53.29;101861.75;4968973;28;20149;-73
2023/04/26 10:42:23;;;;;;;4.65;2.95;;;;;;;10.40;54.89;101862.84;4967366;28;20050;-73
2023/04/26 10:44:51;;;;;;;7.70;2.80;;;;;;;10.50;55.13;101859.59;4968765;28;20046;-73
2023/04/26 10:47:37;;;;;;;8.43;3.85;;;;;;;10.69;54.96;101852.16;4967816;28;20058;-73
2023/04/26 10:50:08;;;;;;;6.57;3.22;;;;;;;10.82;54.61;101853.22;4967654;28;20042;-73
2023/04/26 10:52:35;;;;;;;7.57;3.17;;;;;;;11.27;55.99;101856.06;4967679;28;20046;-72
2023/04/26 10:55:01;;;;;;;5.80;3.20;;;;;;;11.59;57.14;101851.41;4975831;28;20026;-73
2023/04/26 10:57:53;;;;;;;6.78;2.97;;;;;;;11.89;54.61;101846.84;4983128;28;20104;-73
2023/04/26 11:00:25;;;;;;;8.05;3.40;;;;;;;12.23;51.88;101845.59;4983152;28;20065;-73
2023/04/26 11:02:50;;;;;;;;;;;;;;;12.48;55.45;101849.47;4968709;28;20042;-72
2023/04/26 11:05:43;;;;;;;7.23;3.10;;;;;;;12.44;51.03;101848.78;4967767;28;20782;-73
2023/04/26 11:08:17;;;;;;;6.07;3.00;;;;;;;12.33;48.13;101843.16;4966498;28;20297;-73
2023/04/26 11:10:50;;;;;;;10.60;3.10;;;;;;;12.09;47.78;101837.41;4982912;28;20042;-73
2023/04/26 11:13:15;;;;;;;7.93;2.65;;;;;;;11.97;50.66;101847.22;4966475;28;20047;-73
2023/04/26 11:15:41;;;;;;;4.32;3.15;;;;;;;12.11;51.01;101842.75;4968625;28;20109;-73
2023/04/26 11:18:06;;;;;;;8.38;3.42;;;;;;;12.23;51.68;101834.69;4968074;28;20042;-72
2023/04/26 11:20:32;;;;;;;8.57;3.30;;;;;;;12.36;53.30;101833.91;4977394;28;20026;-72
2023/04/26 11:22:59;;;;;;;8.52;3.08;;;;;;;12.45;53.43;101833.28;4967508;28;20074;-72
2023/04/26 11:25:26;;;;;;;6.75;3.17;;;;;;;12.44;53.19;101834.28;4967705;28;20146;-72
2023/04/26 11:28:00;;;;;;;9.32;3.28;;;;;;;12.31;51.12;101839.66;4967763;28;20046;-72